createdAt,value
2023-09-02T00:01:27.950Z,11.59
2023-09-02T00:03:56.100Z,11.58
2023-09-02T00:06:24.501Z,11.60
2023-09-02T00:08:52.523Z,11.60
2023-09-02T00:11:20.556Z,11.59
2023-09-02T00:13:48.610Z,11.58
2023-09-02T00:16:18.215Z,11.59
2023-09-02T00:18:47.677Z,11.58
2023-09-02T00:21:15.800Z,11.59
2023-09-02T00:23:47.399Z,11.62
2023-09-02T00:26:16.347Z,11.63
2023-09-02T00:28:44.945Z,11.66
2023-09-02T00:31:12.988Z,11.64
2023-09-02T00:33:41.698Z,11.61
2023-09-02T00:36:09.836Z,11.57
2023-09-02T00:38:38.677Z,11.53
2023-09-02T00:41:16.317Z,11.50
2023-09-02T00:43:44.422Z,11.48
2023-09-02T00:46:12.925Z,11.46
2023-09-02T00:48:41.126Z,11.43
2023-09-02T00:51:10.444Z,11.41
2023-09-02T00:53:38.614Z,11.39
2023-09-02T00:56:07.159Z,11.38
2023-09-02T00:58:35.685Z,11.38
2023-09-02T01:01:04.715Z,11.39
2023-09-02T01:03:36.929Z,11.40
2023-09-02T01:06:06.324Z,11.40
2023-09-02T01:08:35.330Z,11.42
2023-09-02T01:11:04.029Z,11.46
2023-09-02T01:13:32.583Z,11.49
2023-09-02T01:16:00.862Z,11.52
2023-09-02T01:18:29.113Z,11.53
2023-09-02T01:21:15.780Z,11.54
2023-09-02T01:23:52.956Z,11.53
2023-09-02T01:26:59.139Z,11.52
2023-09-02T01:29:29.544Z,11.52
2023-09-02T01:32:05.096Z,11.50
2023-09-02T01:34:37.505Z,11.47
2023-09-02T01:37:09.337Z,11.44
2023-09-02T01:39:40.002Z,11.40
2023-09-02T01:42:10.531Z,11.38
2023-09-02T01:44:40.229Z,11.35
2023-09-02T01:47:09.633Z,11.32
2023-09-02T01:49:39.100Z,11.30
2023-09-02T01:52:08.141Z,11.28
2023-09-02T01:54:36.765Z,11.25
2023-09-02T01:57:05.421Z,11.23
2023-09-02T01:59:33.575Z,11.21
2023-09-02T02:02:02.363Z,11.18
2023-09-02T02:04:38.064Z,11.14
2023-09-02T02:07:15.055Z,11.10
2023-09-02T02:09:49.680Z,11.06
2023-09-02T02:12:18.326Z,11.02
2023-09-02T02:14:46.903Z,10.98
2023-09-02T02:17:15.525Z,10.95
2023-09-02T02:19:45.429Z,10.91
2023-09-02T02:22:13.501Z,10.88
2023-09-02T02:24:41.913Z,10.86
2023-09-02T02:27:10.709Z,10.85
2023-09-02T02:29:38.692Z,10.83
2023-09-02T02:32:06.788Z,10.80
2023-09-02T02:34:34.873Z,10.78
2023-09-02T02:37:03.804Z,10.76
2023-09-02T02:39:31.794Z,10.76
2023-09-02T02:41:59.936Z,10.75
2023-09-02T02:44:28.043Z,10.73
2023-09-02T02:46:56.183Z,10.71
2023-09-02T02:49:24.234Z,10.69
2023-09-02T02:51:52.257Z,10.67
2023-09-02T02:54:20.851Z,10.65
2023-09-02T02:56:48.959Z,10.62
2023-09-02T02:59:19.182Z,10.59
2023-09-02T03:01:47.567Z,10.59
2023-09-02T03:04:15.667Z,10.58
2023-09-02T03:06:43.825Z,10.57
2023-09-02T03:09:12.039Z,10.55
2023-09-02T03:11:40.290Z,10.55
2023-09-02T03:14:08.532Z,10.53
2023-09-02T03:16:36.551Z,10.52
2023-09-02T03:19:04.697Z,10.52
2023-09-02T03:21:33.574Z,10.50
2023-09-02T03:24:02.025Z,10.48
2023-09-02T03:26:30.120Z,10.48
2023-09-02T03:28:58.201Z,10.48
2023-09-02T03:31:26.521Z,10.49
2023-09-02T03:33:55.027Z,10.49
2023-09-02T03:36:23.219Z,10.51
2023-09-02T03:38:51.573Z,10.52
2023-09-02T03:41:20.483Z,10.51
2023-09-02T03:43:50.725Z,10.51
2023-09-02T03:46:20.262Z,10.50
2023-09-02T03:48:50.678Z,10.51
2023-09-02T03:51:20.139Z,10.52
2023-09-02T03:54:00.412Z,10.49
2023-09-02T03:56:28.499Z,10.45
2023-09-02T03:58:56.539Z,10.38
2023-09-02T04:01:24.949Z,10.31
2023-09-02T04:03:54.034Z,10.24
2023-09-02T04:06:23.851Z,10.16
2023-09-02T04:08:52.422Z,10.09
2023-09-02T04:11:20.665Z,10.03
2023-09-02T04:13:48.848Z,10.00
2023-09-02T04:16:17.371Z,9.99
2023-09-02T04:18:45.815Z,9.99
2023-09-02T04:21:14.288Z,9.99
2023-09-02T04:23:45.059Z,10.01
2023-09-02T04:26:16.123Z,10.06
2023-09-02T04:28:44.768Z,10.13
2023-09-02T04:31:16.191Z,10.18
2023-09-02T04:33:44.982Z,10.25
2023-09-02T04:36:15.467Z,10.32
2023-09-02T04:38:45.203Z,10.40
2023-09-02T04:41:13.826Z,10.47
2023-09-02T04:43:42.236Z,10.54
2023-09-02T04:46:11.814Z,10.66
2023-09-02T04:48:43.469Z,10.77
2023-09-02T04:51:14.469Z,10.86
2023-09-02T04:53:43.026Z,10.96
2023-09-02T04:56:12.072Z,11.07
2023-09-02T04:58:41.393Z,11.18
2023-09-02T05:01:14.589Z,11.31
2023-09-02T05:03:50.044Z,11.45
2023-09-02T05:06:18.427Z,11.58
2023-09-02T05:08:55.366Z,11.75
2023-09-02T05:11:24.905Z,11.93
2023-09-02T05:13:53.665Z,12.03
2023-09-02T05:16:21.906Z,12.14
2023-09-02T05:18:50.762Z,12.23
2023-09-02T05:21:18.855Z,12.36
2023-09-02T05:23:48.008Z,12.47
2023-09-02T05:26:16.084Z,12.61
2023-09-02T05:28:44.689Z,12.74
2023-09-02T05:31:12.802Z,12.85
2023-09-02T05:33:40.960Z,12.99
2023-09-02T05:36:09.185Z,13.14
2023-09-02T05:38:37.228Z,13.26
2023-09-02T05:41:05.347Z,13.39
2023-09-02T05:43:33.416Z,13.52
2023-09-02T05:46:03.235Z,13.64
2023-09-02T05:48:31.868Z,13.76
2023-09-02T05:50:59.953Z,13.90
2023-09-02T05:53:28.240Z,14.03
2023-09-02T05:55:56.794Z,14.32
2023-09-02T05:58:28.691Z,15.12
2023-09-02T06:01:00.460Z,15.80
2023-09-02T06:03:28.915Z,16.35
2023-09-02T06:05:57.600Z,16.83
2023-09-02T06:08:25.891Z,17.17
2023-09-02T06:11:00.929Z,17.67
2023-09-02T06:13:29.143Z,18.11
2023-09-02T06:16:03.165Z,18.29
2023-09-02T06:18:33.036Z,18.62
2023-09-02T06:21:09.361Z,18.95
2023-09-02T06:23:37.838Z,19.28
2023-09-02T06:26:06.814Z,19.38
2023-09-02T06:28:36.150Z,19.51
2023-09-02T06:31:08.716Z,19.74
2023-09-02T06:33:37.598Z,19.75
2023-09-02T06:36:17.888Z,19.73
2023-09-02T06:38:46.364Z,19.98
2023-09-02T06:41:18.026Z,19.93
2023-09-02T06:43:46.207Z,20.09
2023-09-02T06:46:21.769Z,19.80
2023-09-02T06:48:50.330Z,19.70
2023-09-02T06:51:18.404Z,19.96
2023-09-02T06:53:46.468Z,20.15
2023-09-02T06:56:14.538Z,20.12
2023-09-02T06:58:51.627Z,20.10
2023-09-02T07:01:28.778Z,20.11
2023-09-02T07:03:58.239Z,20.29
2023-09-02T07:06:26.492Z,20.55
2023-09-02T07:08:54.503Z,20.70
2023-09-02T07:11:22.564Z,20.66
2023-09-02T07:13:50.627Z,20.88
2023-09-02T07:16:18.763Z,21.10
2023-09-02T07:18:49.541Z,20.85
2023-09-02T07:21:23.616Z,21.07
2023-09-02T07:23:54.433Z,21.30
2023-09-02T07:26:24.784Z,21.40
2023-09-02T07:28:53.122Z,21.47
2023-09-02T07:31:21.316Z,21.46
2023-09-02T07:33:49.490Z,21.61
2023-09-02T07:36:17.637Z,21.81
2023-09-02T07:38:45.742Z,21.95
2023-09-02T07:41:13.801Z,22.09
2023-09-02T07:43:42.027Z,22.52
2023-09-02T07:46:13.256Z,22.74
2023-09-02T07:48:41.564Z,22.89
2023-09-02T07:51:09.683Z,22.82
2023-09-02T07:53:37.849Z,22.78
2023-09-02T07:56:05.896Z,22.68
2023-09-02T07:58:33.887Z,22.83
2023-09-02T08:01:02.129Z,22.86
2023-09-02T08:03:30.324Z,22.97
2023-09-02T08:05:59.004Z,23.11
2023-09-02T08:08:27.040Z,23.14
2023-09-02T08:11:06.821Z,23.30
2023-09-02T08:13:35.497Z,23.43
2023-09-02T08:16:07.138Z,23.42
2023-09-02T08:18:36.321Z,23.16
2023-09-02T08:21:12.096Z,23.30
2023-09-02T08:23:40.796Z,23.61
2023-09-02T08:26:18.710Z,23.86
2023-09-02T08:28:46.757Z,23.96
2023-09-02T08:31:22.034Z,24.06
2023-09-02T08:33:50.805Z,23.99
2023-09-02T08:36:19.309Z,23.88
2023-09-02T08:38:48.933Z,23.99
2023-09-02T08:41:48.478Z,24.03
2023-09-02T08:44:37.564Z,23.84
2023-09-02T08:47:11.238Z,23.93
2023-09-02T08:50:04.804Z,23.98
2023-09-02T08:52:56.917Z,24.13
2023-09-02T08:55:38.789Z,24.32
2023-09-02T08:58:24.884Z,24.30
2023-09-02T09:04:05.958Z,24.65
2023-09-02T09:06:49.650Z,24.60
2023-09-02T09:09:32.114Z,24.76
2023-09-02T09:12:10.520Z,24.73
2023-09-02T09:14:46.337Z,24.79
2023-09-02T09:17:16.025Z,24.80
2023-09-02T09:19:44.830Z,25.06
2023-09-02T09:22:13.184Z,25.13
2023-09-02T09:24:41.488Z,25.18
2023-09-02T09:27:13.772Z,25.16
2023-09-02T09:29:43.609Z,24.99
2023-09-02T09:32:26.498Z,25.11
2023-09-02T09:34:55.393Z,25.13
2023-09-02T09:37:26.806Z,25.33
2023-09-02T09:40:35.987Z,25.48
2023-09-02T09:43:18.775Z,25.70
2023-09-02T09:45:52.044Z,25.74
2023-09-02T09:48:20.437Z,25.79
2023-09-02T09:50:49.323Z,25.84
2023-09-02T09:56:16.435Z,25.83
2023-09-02T09:58:57.081Z,25.84
2023-09-02T10:01:33.932Z,26.00
2023-09-02T10:04:11.512Z,26.02
2023-09-02T10:10:10.211Z,26.31
2023-09-02T10:12:55.858Z,26.62
2023-09-02T10:15:28.399Z,26.40
2023-09-02T10:18:00.533Z,26.47
2023-09-02T10:20:31.124Z,26.32
2023-09-02T10:23:07.216Z,26.04
2023-09-02T10:25:45.441Z,26.36
2023-09-02T10:28:19.078Z,26.50
2023-09-02T10:30:52.763Z,26.10
2023-09-02T10:33:33.116Z,26.05
2023-09-02T10:36:07.521Z,26.13
2023-09-02T10:38:42.569Z,26.49
2023-09-02T10:41:15.980Z,26.39
2023-09-02T10:43:46.485Z,26.52
2023-09-02T10:46:14.670Z,26.67
2023-09-02T10:48:46.617Z,26.83
2023-09-02T10:51:16.233Z,26.78
2023-09-02T10:53:53.434Z,26.60
2023-09-02T10:56:29.525Z,26.58
2023-09-02T10:59:01.979Z,26.37
2023-09-02T11:01:50.745Z,26.75
2023-09-02T11:04:43.233Z,27.13
2023-09-02T11:07:26.310Z,27.01
2023-09-02T11:09:56.650Z,26.86
2023-09-02T11:12:26.176Z,26.90
2023-09-02T11:15:09.358Z,26.89
2023-09-02T11:17:41.933Z,26.78
2023-09-02T11:20:12.780Z,26.93
2023-09-02T11:22:53.467Z,26.87
2023-09-02T11:25:38.682Z,26.84
2023-09-02T11:28:19.106Z,26.56
2023-09-02T11:31:18.356Z,26.52
2023-09-02T11:33:48.534Z,26.72
2023-09-02T11:36:19.383Z,26.86
2023-09-02T11:38:47.514Z,26.51
2023-09-02T11:41:27.480Z,25.82
2023-09-02T11:43:55.864Z,25.93
2023-09-02T11:46:23.974Z,25.87
2023-09-02T11:48:52.227Z,26.18
2023-09-02T11:51:21.413Z,26.38
2023-09-02T11:53:50.584Z,26.61
2023-09-02T11:56:18.808Z,26.20
2023-09-02T11:58:46.878Z,25.82
2023-09-02T12:01:15.300Z,25.72
2023-09-02T12:03:44.092Z,25.73
2023-09-02T12:06:12.751Z,26.01
2023-09-02T12:08:40.988Z,26.23
2023-09-02T12:11:10.268Z,26.60
2023-09-02T12:13:38.887Z,26.88
2023-09-02T12:16:07.279Z,27.08
2023-09-02T12:18:35.493Z,27.04
2023-09-02T12:21:03.980Z,27.16
2023-09-02T12:23:32.193Z,27.22
2023-09-02T12:26:11.220Z,27.19
2023-09-02T12:28:50.446Z,27.31
2023-09-02T12:31:18.830Z,27.26
2023-09-02T12:33:51.513Z,26.84
2023-09-02T12:36:21.076Z,26.63
2023-09-02T12:38:52.732Z,26.21
2023-09-02T12:41:21.028Z,25.83
2023-09-02T12:43:49.187Z,25.37
2023-09-02T12:46:22.867Z,25.00
2023-09-02T12:48:52.168Z,24.41
2023-09-02T12:51:23.160Z,24.14
2023-09-02T12:53:51.128Z,24.12
2023-09-02T12:56:19.572Z,24.70
2023-09-02T12:58:47.699Z,25.06
2023-09-02T13:01:15.948Z,25.15
2023-09-02T13:03:46.892Z,25.26
2023-09-02T13:06:15.094Z,25.14
2023-09-02T13:08:44.614Z,25.22
2023-09-02T13:11:12.761Z,25.09
2023-09-02T13:13:41.115Z,25.12
2023-09-02T13:16:09.341Z,25.39
2023-09-02T13:18:37.407Z,25.24
2023-09-02T13:21:05.715Z,24.98
2023-09-02T13:23:33.859Z,25.13
2023-09-02T13:26:16.082Z,25.13
2023-09-02T13:28:44.311Z,25.30
2023-09-02T13:31:13.648Z,25.44
2023-09-02T13:33:43.706Z,25.19
2023-09-02T13:36:13.432Z,25.05
2023-09-02T13:38:41.854Z,25.18
2023-09-02T13:41:13.641Z,25.81
2023-09-02T13:43:41.779Z,26.31
2023-09-02T13:46:11.459Z,26.81
2023-09-02T13:48:39.836Z,26.93
2023-09-02T13:51:09.197Z,27.05
2023-09-02T13:53:39.375Z,27.44
2023-09-02T13:56:07.572Z,27.87
2023-09-02T13:58:39.844Z,28.07
2023-09-02T14:01:08.099Z,28.43
2023-09-02T14:03:37.738Z,28.57
2023-09-02T14:06:07.291Z,28.28
2023-09-02T14:08:40.259Z,28.12
2023-09-02T14:11:08.424Z,27.71
2023-09-02T14:13:42.130Z,27.42
2023-09-02T14:16:10.843Z,27.11
2023-09-02T14:18:39.099Z,26.72
2023-09-02T14:21:07.298Z,26.43
2023-09-02T14:23:35.464Z,26.20
2023-09-02T14:26:03.565Z,26.06
2023-09-02T14:28:35.403Z,26.08
2023-09-02T14:31:03.619Z,26.24
2023-09-02T14:33:31.926Z,26.42
2023-09-02T14:36:00.940Z,26.38
2023-09-02T14:38:28.910Z,26.31
2023-09-02T14:40:56.908Z,25.78
2023-09-02T14:43:25.044Z,25.74
2023-09-02T14:45:53.116Z,25.56
2023-09-02T14:48:25.199Z,25.14
2023-09-02T14:50:53.589Z,24.80
2023-09-02T14:53:23.422Z,24.61
2023-09-02T14:55:52.520Z,24.39
2023-09-02T14:58:21.720Z,24.15
2023-09-02T15:00:54.216Z,24.07
2023-09-02T15:03:27.723Z,23.83
2023-09-02T15:05:59.276Z,23.34
2023-09-02T15:08:28.508Z,23.30
2023-09-02T15:11:01.599Z,23.24
2023-09-02T15:13:31.049Z,23.04
2023-09-02T15:16:02.053Z,22.83
2023-09-02T15:18:32.477Z,22.74
2023-09-02T15:21:03.487Z,22.57
2023-09-02T15:23:33.487Z,22.51
2023-09-02T15:26:03.030Z,22.46
2023-09-02T15:28:31.086Z,22.65
2023-09-02T15:31:03.773Z,22.93
2023-09-02T15:33:32.152Z,23.00
2023-09-02T15:36:04.177Z,23.27
2023-09-02T15:38:32.194Z,23.74
2023-09-02T15:41:03.211Z,24.05
2023-09-02T15:43:37.282Z,24.20
2023-09-02T15:46:08.730Z,24.24
2023-09-02T15:48:36.854Z,24.25
2023-09-02T15:51:05.175Z,24.25
2023-09-02T15:53:33.755Z,24.12
2023-09-02T15:56:01.843Z,24.10
2023-09-02T15:58:29.910Z,24.10
2023-09-02T16:00:58.451Z,24.01
2023-09-02T16:03:26.739Z,23.88
2023-09-02T16:05:54.940Z,23.85
2023-09-02T16:08:22.889Z,23.84
2023-09-02T16:10:52.457Z,23.71
2023-09-02T16:13:24.223Z,23.50
2023-09-02T16:15:52.282Z,23.27
2023-09-02T16:18:20.474Z,22.99
2023-09-02T16:20:48.661Z,22.74
2023-09-02T16:23:16.814Z,22.56
2023-09-02T16:25:44.839Z,22.46
2023-09-02T16:28:13.704Z,22.37
2023-09-02T16:30:41.718Z,22.24
2023-09-02T16:33:09.929Z,22.13
2023-09-02T16:35:38.142Z,21.98
2023-09-02T16:38:06.192Z,21.81
2023-09-02T16:40:34.225Z,21.69
2023-09-02T16:43:02.408Z,21.58
2023-09-02T16:45:30.730Z,21.47
2023-09-02T16:48:07.371Z,21.34
2023-09-02T16:50:38.234Z,21.20
2023-09-02T16:53:06.423Z,21.09
2023-09-02T16:55:34.501Z,20.99
2023-09-02T16:58:02.471Z,20.86
2023-09-02T17:00:36.310Z,20.73
2023-09-02T17:03:06.059Z,20.58
2023-09-02T17:05:36.137Z,20.41
2023-09-02T17:08:08.953Z,20.23
2023-09-02T17:10:37.129Z,20.01
2023-09-02T17:13:08.109Z,19.83
2023-09-02T17:15:37.885Z,19.65
2023-09-02T17:18:10.925Z,19.47
2023-09-02T17:20:41.651Z,19.28
2023-09-02T17:23:19.827Z,19.11
2023-09-02T17:25:50.235Z,18.92
2023-09-02T17:28:26.785Z,18.75
2023-09-02T17:31:09.438Z,18.57
2023-09-02T17:33:38.584Z,18.37
2023-09-02T17:36:07.732Z,18.20
2023-09-02T17:38:35.946Z,18.06
2023-09-02T17:41:04.970Z,17.92
2023-09-02T17:43:33.121Z,17.79
2023-09-02T17:46:01.205Z,17.66
2023-09-02T17:48:29.342Z,17.54
2023-09-02T17:50:57.423Z,17.40
2023-09-02T17:53:25.378Z,17.28
2023-09-02T17:55:53.403Z,17.15
2023-09-02T17:58:21.659Z,17.02
2023-09-02T18:00:50.088Z,16.89
2023-09-02T18:03:19.591Z,16.78
2023-09-02T18:05:47.808Z,16.67
2023-09-02T18:08:15.804Z,16.56
2023-09-02T18:10:43.838Z,16.47
2023-09-02T18:13:11.914Z,16.38
2023-09-02T18:15:39.893Z,16.29
2023-09-02T18:18:08.051Z,16.22
2023-09-02T18:20:36.167Z,16.13
2023-09-02T18:23:04.415Z,16.06
2023-09-02T18:25:32.572Z,15.99
2023-09-02T18:28:04.295Z,15.91
2023-09-02T18:30:32.798Z,15.82
2023-09-02T18:33:00.819Z,15.75
2023-09-02T18:35:29.018Z,15.69
2023-09-02T18:37:57.069Z,15.64
2023-09-02T18:40:25.176Z,15.58
2023-09-02T18:42:53.198Z,15.53
2023-09-02T18:45:21.171Z,15.48
2023-09-02T18:47:52.427Z,15.45
2023-09-02T18:50:20.548Z,15.44
2023-09-02T18:52:48.592Z,15.41
2023-09-02T18:55:16.634Z,15.38
2023-09-02T18:57:44.704Z,15.34
2023-09-02T19:00:13.347Z,15.31
2023-09-02T19:02:41.437Z,15.26
2023-09-02T19:05:09.541Z,15.25
2023-09-02T19:07:37.617Z,15.23
2023-09-02T19:10:06.147Z,15.22
2023-09-02T19:12:34.226Z,15.20
2023-09-02T19:15:02.237Z,15.20
2023-09-02T19:17:30.550Z,15.20
2023-09-02T19:19:58.672Z,15.22
2023-09-02T19:22:26.934Z,15.23
2023-09-02T19:24:54.992Z,15.26
2023-09-02T19:27:23.009Z,15.29
2023-09-02T19:29:50.986Z,15.34
2023-09-02T19:32:18.987Z,15.39
2023-09-02T19:34:46.994Z,15.46
2023-09-02T19:37:15.021Z,15.52
2023-09-02T19:39:43.079Z,15.58
2023-09-02T19:42:11.088Z,15.64
2023-09-02T19:44:39.143Z,15.71
2023-09-02T19:47:07.106Z,15.75
2023-09-02T19:49:35.186Z,15.77
2023-09-02T19:52:03.304Z,15.77
2023-09-02T19:54:31.318Z,15.77
2023-09-02T19:56:59.385Z,15.77
2023-09-02T19:59:27.485Z,15.75
2023-09-02T20:01:55.584Z,15.73
2023-09-02T20:04:23.672Z,15.70
2023-09-02T20:06:51.678Z,15.68
2023-09-02T20:09:19.741Z,15.67
2023-09-02T20:11:47.809Z,15.65
2023-09-02T20:14:15.834Z,15.64
2023-09-02T20:16:43.962Z,15.62
2023-09-02T20:19:12.024Z,15.60
2023-09-02T20:21:40.005Z,15.55
2023-09-02T20:24:10.349Z,15.51
2023-09-02T20:26:38.559Z,15.46
2023-09-02T20:29:06.773Z,15.42
2023-09-02T20:31:34.878Z,15.40
2023-09-02T20:34:06.683Z,15.38
2023-09-02T20:36:34.858Z,15.38
2023-09-02T20:39:03.670Z,15.43
2023-09-02T20:41:32.367Z,15.45
2023-09-02T20:44:00.817Z,15.51
2023-09-02T20:46:28.954Z,15.54
2023-09-02T20:48:57.049Z,15.56
2023-09-02T20:51:25.072Z,15.55
2023-09-02T20:53:53.151Z,15.55
2023-09-02T20:56:21.291Z,15.54
2023-09-02T20:58:49.422Z,15.56
2023-09-02T21:01:18.051Z,15.58
2023-09-02T21:03:46.195Z,15.58
2023-09-02T21:06:14.451Z,15.60
2023-09-02T21:08:42.490Z,15.59
2023-09-02T21:11:15.732Z,15.59
2023-09-02T21:13:46.657Z,15.57
2023-09-02T21:16:24.276Z,15.55
2023-09-02T21:18:52.440Z,15.51
2023-09-02T21:21:21.489Z,15.46
2023-09-02T21:23:50.969Z,15.40
2023-09-02T21:26:19.530Z,15.34
2023-09-02T21:28:49.906Z,15.25
2023-09-02T21:31:19.820Z,15.15
2023-09-02T21:33:51.325Z,15.05
2023-09-02T21:36:19.740Z,14.97
2023-09-02T21:38:49.795Z,14.90
2023-09-02T21:41:18.958Z,14.85
2023-09-02T21:43:47.319Z,14.81
2023-09-02T21:46:15.668Z,14.78
2023-09-02T21:48:43.899Z,14.71
2023-09-02T21:51:12.490Z,14.66
2023-09-02T21:53:42.606Z,14.61
2023-09-02T21:56:11.364Z,14.57
2023-09-02T21:58:40.622Z,14.54
2023-09-02T22:01:14.623Z,14.52
2023-09-02T22:03:42.920Z,14.49
2023-09-02T22:06:13.553Z,14.45
2023-09-02T22:08:46.828Z,14.39
2023-09-02T22:11:17.458Z,14.34
2023-09-02T22:13:46.797Z,14.29
2023-09-02T22:16:15.363Z,14.25
2023-09-02T22:18:52.321Z,14.24
2023-09-02T22:21:24.534Z,14.21
2023-09-02T22:23:52.515Z,14.17
2023-09-02T22:26:20.633Z,14.13
2023-09-02T22:28:48.855Z,14.07
2023-09-02T22:31:17.587Z,14.00
2023-09-02T22:33:45.588Z,13.95
2023-09-02T22:36:13.699Z,13.90
2023-09-02T22:41:12.955Z,13.83
2023-09-02T22:43:41.024Z,13.79
2023-09-02T22:46:10.301Z,13.76
2023-09-02T22:48:38.576Z,13.70
2023-09-02T22:51:07.774Z,13.64
2023-09-02T22:53:36.515Z,13.56
2023-09-02T22:56:16.126Z,13.51
2023-09-02T22:58:44.559Z,13.45
2023-09-02T23:01:14.314Z,13.40
2023-09-02T23:03:43.997Z,13.35
2023-09-02T23:06:13.855Z,13.31
2023-09-02T23:08:46.283Z,13.30
2023-09-02T23:11:14.586Z,13.27
2023-09-02T23:13:44.246Z,13.24
2023-09-02T23:16:12.347Z,13.20
2023-09-02T23:18:42.135Z,13.15
2023-09-02T23:21:12.544Z,13.09
2023-09-02T23:23:40.790Z,13.03
2023-09-02T23:26:09.589Z,12.97
2023-09-02T23:28:40.110Z,12.93
2023-09-02T23:31:08.619Z,12.88
2023-09-02T23:33:38.788Z,12.84
2023-09-02T23:36:07.679Z,12.82
2023-09-02T23:38:35.856Z,12.78
2023-09-02T23:41:03.860Z,12.77
2023-09-02T23:43:32.004Z,12.76
2023-09-02T23:46:00.578Z,12.75
2023-09-02T23:48:29.053Z,12.70
2023-09-02T23:51:00.221Z,12.65
2023-09-02T23:53:29.023Z,12.61
2023-09-02T23:55:57.688Z,12.59
2023-09-02T23:58:26.638Z,12.57
